sensor_id;sensor_type;location;lat;lon;timestamp;pressure;altitude;pressure_sealevel;temperature;humidity
7105;BME280;3594;42.152;24.714;2022-08-24T00:01:51;-24385.97;;;20.46;100.00
7105;BME280;3594;42.152;24.714;2022-08-24T00:04:25;-24394.41;;;20.77;100.00
7105;BME280;3594;42.152;24.714;2022-08-24T00:07:03;-24397.47;;;20.88;100.00
7105;BME280;3594;42.152;24.714;2022-08-24T00:09:45;-24396.09;;;20.83;100.00
7105;BME280;3594;42.152;24.714;2022-08-24T00:12:21;-24394.84;;;20.78;100.00
7105;BME280;3594;42.152;24.714;2022-08-24T00:14:56;-24395.41;;;20.80;100.00
7105;BME280;3594;42.152;24.714;2022-08-24T00:17:25;-24389.28;;;20.58;100.00
7105;BME280;3594;42.152;24.714;2022-08-24T00:19:53;-24385.28;;;20.43;100.00
7105;BME280;3594;42.152;24.714;2022-08-24T00:22:21;-24385.28;;;20.43;100.00
7105;BME280;3594;42.152;24.714;2022-08-24T00:24:50;-24384.56;;;20.41;100.00
7105;BME280;3594;42.152;24.714;2022-08-24T00:27:16;-24384.84;;;20.42;100.00
7105;BME280;3594;42.152;24.714;2022-08-24T00:29:41;-24380.13;;;20.24;100.00
7105;BME280;3594;42.152;24.714;2022-08-24T00:32:07;-24384.72;;;20.41;100.00
7105;BME280;3594;42.152;24.714;2022-08-24T00:34:33;-24375.81;;;20.09;100.00
7105;BME280;3594;42.152;24.714;2022-08-24T00:36:58;-24377.06;;;20.13;100.00
7105;BME280;3594;42.152;24.714;2022-08-24T00:39:24;-24384.72;;;20.41;100.00
7105;BME280;3594;42.152;24.714;2022-08-24T00:41:50;-24383.75;;;20.38;100.00
7105;BME280;3594;42.152;24.714;2022-08-24T00:44:40;-24385.00;;;20.42;100.00
7105;BME280;3594;42.152;24.714;2022-08-24T00:47:20;-24379.44;;;20.22;100.00
7105;BME280;3594;42.152;24.714;2022-08-24T00:49:59;-24384.03;;;20.39;100.00
7105;BME280;3594;42.152;24.714;2022-08-24T00:52:30;-24372.50;;;19.97;100.00
7105;BME280;3594;42.152;24.714;2022-08-24T00:55:01;-24376.25;;;20.10;100.00
7105;BME280;3594;42.152;24.714;2022-08-24T00:57:31;-24381.22;;;20.28;100.00
7105;BME280;3594;42.152;24.714;2022-08-24T01:00:17;-24380.81;;;20.27;100.00
7105;BME280;3594;42.152;24.714;2022-08-24T01:02:47;-24379.56;;;20.22;100.00
7105;BME280;3594;42.152;24.714;2022-08-24T01:05:14;-24378.31;;;20.18;100.00
7105;BME280;3594;42.152;24.714;2022-08-24T01:07:42;-24366.94;;;19.76;100.00
7105;BME280;3594;42.152;24.714;2022-08-24T01:10:11;-24378.19;;;20.17;100.00
7105;BME280;3594;42.152;24.714;2022-08-24T01:12:40;-24369.56;;;19.86;100.00
7105;BME280;3594;42.152;24.714;2022-08-24T01:15:08;-24368.31;;;19.81;100.00
7105;BME280;3594;42.152;24.714;2022-08-24T01:17:34;-24377.63;;;20.15;100.00
7105;BME280;3594;42.152;24.714;2022-08-24T01:20:19;-24374.00;;;20.02;100.00
7105;BME280;3594;42.152;24.714;2022-08-24T01:22:56;-24383.59;;;20.37;100.00
7105;BME280;3594;42.152;24.714;2022-08-24T01:25:25;-24384.84;;;20.42;100.00
7105;BME280;3594;42.152;24.714;2022-08-24T01:28:03;-24384.28;;;20.40;100.00
7105;BME280;3594;42.152;24.714;2022-08-24T01:30:31;-24379.84;;;20.23;100.00
7105;BME280;3594;42.152;24.714;2022-08-24T01:32:59;-24380.13;;;20.24;100.00
7105;BME280;3594;42.152;24.714;2022-08-24T01:35:25;-24371.66;;;19.94;100.00
7105;BME280;3594;42.152;24.714;2022-08-24T01:37:51;-24375.69;;;20.08;100.00
7105;BME280;3594;42.152;24.714;2022-08-24T01:40:18;-24380.81;;;20.27;100.00
7105;BME280;3594;42.152;24.714;2022-08-24T01:42:50;-24369.97;;;19.88;100.00
7105;BME280;3594;42.152;24.714;2022-08-24T01:45:15;-24374.84;;;20.05;100.00
7105;BME280;3594;42.152;24.714;2022-08-24T01:47:41;-24369.97;;;19.88;100.00
7105;BME280;3594;42.152;24.714;2022-08-24T01:50:07;-24370.41;;;19.89;100.00
7105;BME280;3594;42.152;24.714;2022-08-24T01:52:33;-24377.47;;;20.15;100.00
7105;BME280;3594;42.152;24.714;2022-08-24T01:54:58;-24367.63;;;19.79;100.00
7105;BME280;3594;42.152;24.714;2022-08-24T01:57:25;-24363.44;;;19.64;100.00
7105;BME280;3594;42.152;24.714;2022-08-24T01:59:51;-24372.34;;;19.96;100.00
7105;BME280;3594;42.152;24.714;2022-08-24T02:02:26;-24359.56;;;19.50;100.00
7105;BME280;3594;42.152;24.714;2022-08-24T02:04:53;-24358.72;;;19.47;100.00
7105;BME280;3594;42.152;24.714;2022-08-24T02:07:18;-24369.28;;;19.85;100.00
7105;BME280;3594;42.152;24.714;2022-08-24T02:09:44;-24369.97;;;19.88;100.00
7105;BME280;3594;42.152;24.714;2022-08-24T02:12:10;-24359.84;;;19.51;100.00
7105;BME280;3594;42.152;24.714;2022-08-24T02:14:36;-24358.03;;;19.44;100.00
7105;BME280;3594;42.152;24.714;2022-08-24T02:17:05;-24356.06;;;19.37;100.00
7105;BME280;3594;42.152;24.714;2022-08-24T02:19:31;-24360.66;;;19.54;100.00
7105;BME280;3594;42.152;24.714;2022-08-24T02:21:56;-24365.25;;;19.70;100.00
7105;BME280;3594;42.152;24.714;2022-08-24T02:24:22;-24363.03;;;19.62;100.00
7105;BME280;3594;42.152;24.714;2022-08-24T02:26:47;-24354.53;;;19.31;100.00
7105;BME280;3594;42.152;24.714;2022-08-24T02:29:13;-24355.09;;;19.33;100.00
7105;BME280;3594;42.152;24.714;2022-08-24T02:31:39;-24367.91;;;19.80;100.00
7105;BME280;3594;42.152;24.714;2022-08-24T02:34:04;-24362.19;;;19.59;100.00
7105;BME280;3594;42.152;24.714;2022-08-24T02:36:31;-24367.34;;;19.78;100.00
7105;BME280;3594;42.152;24.714;2022-08-24T02:38:57;-24378.47;;;20.18;100.00
7105;BME280;3594;42.152;24.714;2022-08-24T02:41:23;-24372.91;;;19.98;100.00
7105;BME280;3594;42.152;24.714;2022-08-24T02:43:50;-24358.59;;;19.46;100.00
7105;BME280;3594;42.152;24.714;2022-08-24T02:46:21;-24373.19;;;19.99;100.00
7105;BME280;3594;42.152;24.714;2022-08-24T02:48:47;-24368.19;;;19.81;100.00
7105;BME280;3594;42.152;24.714;2022-08-24T02:51:30;-24365.94;;;19.73;100.00
7105;BME280;3594;42.152;24.714;2022-08-24T02:54:01;-24358.03;;;19.44;100.00
7105;BME280;3594;42.152;24.714;2022-08-24T02:56:27;-24363.16;;;19.63;100.00
7105;BME280;3594;42.152;24.714;2022-08-24T02:58:55;-24360.13;;;19.52;100.00
7105;BME280;3594;42.152;24.714;2022-08-24T03:01:21;-24367.63;;;19.79;100.00
7105;BME280;3594;42.152;24.714;2022-08-24T03:03:46;-24367.47;;;19.78;100.00
7105;BME280;3594;42.152;24.714;2022-08-24T03:06:12;-24373.47;;;20.00;100.00
7105;BME280;3594;42.152;24.714;2022-08-24T03:08:38;-24362.19;;;19.59;100.00
7105;BME280;3594;42.152;24.714;2022-08-24T03:11:04;-24365.25;;;19.70;100.00
7105;BME280;3594;42.152;24.714;2022-08-24T03:13:31;-24354.81;;;19.32;100.00
7105;BME280;3594;42.152;24.714;2022-08-24T03:15:57;-24360.13;;;19.52;100.00
7105;BME280;3594;42.152;24.714;2022-08-24T03:18:24;-24347.72;;;19.07;100.00
7105;BME280;3594;42.152;24.714;2022-08-24T03:20:52;-24356.50;;;19.38;100.00
7105;BME280;3594;42.152;24.714;2022-08-24T03:23:17;-24367.47;;;19.78;100.00
7105;BME280;3594;42.152;24.714;2022-08-24T03:25:43;-24361.66;;;19.57;100.00
7105;BME280;3594;42.152;24.714;2022-08-24T03:28:09;-24364.28;;;19.67;100.00
7105;BME280;3594;42.152;24.714;2022-08-24T03:30:37;-24350.66;;;19.17;100.00
7105;BME280;3594;42.152;24.714;2022-08-24T03:33:04;-24355.66;;;19.35;100.00
7105;BME280;3594;42.152;24.714;2022-08-24T03:35:30;-24343.56;;;18.91;100.00
7105;BME280;3594;42.152;24.714;2022-08-24T03:37:55;-24343.00;;;18.89;100.00
7105;BME280;3594;42.152;24.714;2022-08-24T03:40:21;-24346.06;;;19.01;100.00
7105;BME280;3594;42.152;24.714;2022-08-24T03:42:47;-24357.47;;;19.42;100.00
7105;BME280;3594;42.152;24.714;2022-08-24T03:45:12;-24354.81;;;19.32;100.00
7105;BME280;3594;42.152;24.714;2022-08-24T03:47:38;-24348.28;;;19.09;100.00
7105;BME280;3594;42.152;24.714;2022-08-24T03:50:04;-24360.94;;;19.55;100.00
7105;BME280;3594;42.152;24.714;2022-08-24T03:52:31;-24352.31;;;19.23;100.00
7105;BME280;3594;42.152;24.714;2022-08-24T03:54:57;-24362.19;;;19.59;100.00
7105;BME280;3594;42.152;24.714;2022-08-24T03:57:23;-24353.84;;;19.29;100.00
7105;BME280;3594;42.152;24.714;2022-08-24T03:59:49;-24357.88;;;19.44;100.00
7105;BME280;3594;42.152;24.714;2022-08-24T04:02:14;-24367.19;;;19.77;100.00
7105;BME280;3594;42.152;24.714;2022-08-24T04:04:39;-24367.06;;;19.77;100.00
7105;BME280;3594;42.152;24.714;2022-08-24T04:07:05;-24371.78;;;19.94;100.00
7105;BME280;3594;42.152;24.714;2022-08-24T04:09:31;-24373.47;;;20.00;100.00
7105;BME280;3594;42.152;24.714;2022-08-24T04:11:56;-24366.94;;;19.76;100.00
7105;BME280;3594;42.152;24.714;2022-08-24T04:14:22;-24377.22;;;20.14;100.00
7105;BME280;3594;42.152;24.714;2022-08-24T04:16:47;-24393.72;;;20.74;100.00
7105;BME280;3594;42.152;24.714;2022-08-24T04:19:13;-24418.00;;;21.63;100.00
7105;BME280;3594;42.152;24.714;2022-08-24T04:21:39;-24442.63;;;22.53;100.00
7105;BME280;3594;42.152;24.714;2022-08-24T04:24:06;-24444.72;;;22.60;100.00
7105;BME280;3594;42.152;24.714;2022-08-24T04:26:34;-24454.25;;;22.95;100.00
7105;BME280;3594;42.152;24.714;2022-08-24T04:29:01;-24456.47;;;23.03;100.00
7105;BME280;3594;42.152;24.714;2022-08-24T04:31:27;-24465.44;;;23.36;100.00
7105;BME280;3594;42.152;24.714;2022-08-24T04:33:54;-24463.66;;;23.29;100.00
7105;BME280;3594;42.152;24.714;2022-08-24T04:36:20;-24470.00;;;23.53;100.00
7105;BME280;3594;42.152;24.714;2022-08-24T04:38:46;-24478.69;;;23.85;100.00
7105;BME280;3594;42.152;24.714;2022-08-24T04:41:13;-24462.97;;;23.27;100.00
7105;BME280;3594;42.152;24.714;2022-08-24T04:43:41;-24458.25;;;23.10;100.00
7105;BME280;3594;42.152;24.714;2022-08-24T04:46:11;-24442.78;;;22.53;100.00
7105;BME280;3594;42.152;24.714;2022-08-24T04:48:39;-24435.88;;;22.28;100.00
7105;BME280;3594;42.152;24.714;2022-08-24T04:51:07;-24434.47;;;22.23;100.00
7105;BME280;3594;42.152;24.714;2022-08-24T04:53:34;-24422.28;;;21.78;100.00
7105;BME280;3594;42.152;24.714;2022-08-24T04:55:59;-24423.94;;;21.84;100.00
7105;BME280;3594;42.152;24.714;2022-08-24T04:58:27;-24426.31;;;21.93;100.00
7105;BME280;3594;42.152;24.714;2022-08-24T05:00:53;-24419.25;;;21.67;100.00
7105;BME280;3594;42.152;24.714;2022-08-24T05:03:19;-24426.03;;;21.92;100.00
7105;BME280;3594;42.152;24.714;2022-08-24T05:05:47;-24420.63;;;21.72;100.00
7105;BME280;3594;42.152;24.714;2022-08-24T05:08:13;-24414.53;;;21.50;100.00
7105;BME280;3594;42.152;24.714;2022-08-24T05:10:41;-24416.47;;;21.57;100.00
7105;BME280;3594;42.152;24.714;2022-08-24T05:13:07;-24422.72;;;21.80;100.00
7105;BME280;3594;42.152;24.714;2022-08-24T05:15:34;-24421.88;;;21.77;100.00
7105;BME280;3594;42.152;24.714;2022-08-24T05:18:00;-24425.06;;;21.88;100.00
7105;BME280;3594;42.152;24.714;2022-08-24T05:20:26;-24423.41;;;21.82;100.00
7105;BME280;3594;42.152;24.714;2022-08-24T05:22:52;-24426.03;;;21.92;100.00
7105;BME280;3594;42.152;24.714;2022-08-24T05:25:19;-24429.34;;;22.04;100.00
7105;BME280;3594;42.152;24.714;2022-08-24T05:27:45;-24431.03;;;22.10;100.00
7105;BME280;3594;42.152;24.714;2022-08-24T05:30:11;-24441.41;;;22.48;100.00
7105;BME280;3594;42.152;24.714;2022-08-24T05:32:37;-24445.97;;;22.65;100.00
7105;BME280;3594;42.152;24.714;2022-08-24T05:35:05;-24444.31;;;22.59;100.00
7105;BME280;3594;42.152;24.714;2022-08-24T05:37:33;-24442.38;;;22.52;100.00
7105;BME280;3594;42.152;24.714;2022-08-24T05:40:01;-24441.94;;;22.50;100.00
7105;BME280;3594;42.152;24.714;2022-08-24T05:42:27;-24440.28;;;22.44;100.00
7105;BME280;3594;42.152;24.714;2022-08-24T05:44:52;-24438.06;;;22.36;100.00
7105;BME280;3594;42.152;24.714;2022-08-24T05:47:17;-24428.81;;;22.02;100.00
7105;BME280;3594;42.152;24.714;2022-08-24T05:49:43;-24439.47;;;22.41;100.00
7105;BME280;3594;42.152;24.714;2022-08-24T05:52:10;-24437.78;;;22.35;100.00
7105;BME280;3594;42.152;24.714;2022-08-24T05:54:35;-24438.22;;;22.36;100.00
7105;BME280;3594;42.152;24.714;2022-08-24T05:57:01;-24438.75;;;22.38;100.00
7105;BME280;3594;42.152;24.714;2022-08-24T05:59:29;-24432.53;;;22.16;100.00
7105;BME280;3594;42.152;24.714;2022-08-24T06:01:55;-24441.94;;;22.50;100.00
7105;BME280;3594;42.152;24.714;2022-08-24T06:04:20;-24438.91;;;22.39;100.00
7105;BME280;3594;42.152;24.714;2022-08-24T06:06:46;-24433.22;;;22.18;100.00
7105;BME280;3594;42.152;24.714;2022-08-24T06:09:12;-24440.56;;;22.45;100.00
7105;BME280;3594;42.152;24.714;2022-08-24T06:11:39;-24437.25;;;22.33;100.00
7105;BME280;3594;42.152;24.714;2022-08-24T06:14:07;-24444.16;;;22.58;100.00
7105;BME280;3594;42.152;24.714;2022-08-24T06:16:38;-24449.97;;;22.79;100.00
7105;BME280;3594;42.152;24.714;2022-08-24T06:19:05;-24453.16;;;22.91;100.00
7105;BME280;3594;42.152;24.714;2022-08-24T06:21:31;-24452.03;;;22.87;100.00
7105;BME280;3594;42.152;24.714;2022-08-24T06:23:57;-24464.63;;;23.33;100.00
7105;BME280;3594;42.152;24.714;2022-08-24T06:26:23;-24458.25;;;23.10;100.00
7105;BME280;3594;42.152;24.714;2022-08-24T06:29:08;-24475.38;;;23.72;100.00
7105;BME280;3594;42.152;24.714;2022-08-24T06:31:38;-24467.38;;;23.43;100.00
7105;BME280;3594;42.152;24.714;2022-08-24T06:34:06;-24471.81;;;23.59;100.00
7105;BME280;3594;42.152;24.714;2022-08-24T06:36:31;-24480.78;;;23.92;100.00
7105;BME280;3594;42.152;24.714;2022-08-24T06:38:57;-24487.25;;;24.16;100.00
7105;BME280;3594;42.152;24.714;2022-08-24T06:41:22;-24492.09;;;24.34;100.00
7105;BME280;3594;42.152;24.714;2022-08-24T06:43:49;-24492.22;;;24.34;100.00
7105;BME280;3594;42.152;24.714;2022-08-24T06:46:15;-24486.69;;;24.14;100.00
7105;BME280;3594;42.152;24.714;2022-08-24T06:48:40;-24486.56;;;24.13;100.00
7105;BME280;3594;42.152;24.714;2022-08-24T06:51:09;-24496.91;;;24.51;100.00
7105;BME280;3594;42.152;24.714;2022-08-24T06:53:36;-24489.47;;;24.24;100.00
7105;BME280;3594;42.152;24.714;2022-08-24T06:56:02;-24485.59;;;24.10;100.00
7105;BME280;3594;42.152;24.714;2022-08-24T06:58:28;-24489.31;;;24.24;100.00
7105;BME280;3594;42.152;24.714;2022-08-24T07:00:54;-24485.31;;;24.09;100.00
7105;BME280;3594;42.152;24.714;2022-08-24T07:03:22;-24501.31;;;24.68;100.00
7105;BME280;3594;42.152;24.714;2022-08-24T07:05:52;-24499.94;;;24.62;100.00
7105;BME280;3594;42.152;24.714;2022-08-24T07:08:18;-24506.28;;;24.86;100.00
7105;BME280;3594;42.152;24.714;2022-08-24T07:10:44;-24507.66;;;24.91;100.00
7105;BME280;3594;42.152;24.714;2022-08-24T07:13:10;-24519.78;;;25.35;100.00
7105;BME280;3594;42.152;24.714;2022-08-24T07:15:36;-24522.78;;;25.46;100.00
7105;BME280;3594;42.152;24.714;2022-08-24T07:18:02;-24529.69;;;25.72;100.00
7105;BME280;3594;42.152;24.714;2022-08-24T07:20:31;-24532.44;;;25.82;100.00
7105;BME280;3594;42.152;24.714;2022-08-24T07:22:56;-24546.03;;;26.32;100.00
7105;BME280;3594;42.152;24.714;2022-08-24T07:25:21;-24548.22;;;26.40;100.00
7105;BME280;3594;42.152;24.714;2022-08-24T07:27:47;-24543.84;;;26.24;100.00
7105;BME280;3594;42.152;24.714;2022-08-24T07:30:13;-24557.28;;;26.73;100.00
7105;BME280;3594;42.152;24.714;2022-08-24T07:32:38;-24550.16;;;26.47;100.00
7105;BME280;3594;42.152;24.714;2022-08-24T07:35:04;-24553.84;;;26.61;100.00
7105;BME280;3594;42.152;24.714;2022-08-24T07:37:30;-24566.47;;;27.07;100.00
7105;BME280;3594;42.152;24.714;2022-08-24T07:39:55;-24564.00;;;26.98;100.00
7105;BME280;3594;42.152;24.714;2022-08-24T07:42:21;-24572.50;;;27.30;100.00
7105;BME280;3594;42.152;24.714;2022-08-24T07:44:47;-24564.28;;;26.99;100.00
7105;BME280;3594;42.152;24.714;2022-08-24T07:47:12;-24581.44;;;27.62;100.00
7105;BME280;3594;42.152;24.714;2022-08-24T07:49:39;-24581.28;;;27.62;100.00
7105;BME280;3594;42.152;24.714;2022-08-24T07:52:05;-24579.91;;;27.57;100.00
7105;BME280;3594;42.152;24.714;2022-08-24T07:54:30;-24578.28;;;27.51;100.00
7105;BME280;3594;42.152;24.714;2022-08-24T07:56:58;-24579.91;;;27.57;100.00
7105;BME280;3594;42.152;24.714;2022-08-24T07:59:23;-24579.09;;;27.54;100.00
7105;BME280;3594;42.152;24.714;2022-08-24T08:01:49;-24569.22;;;27.17;100.00
7105;BME280;3594;42.152;24.714;2022-08-24T08:04:14;-24568.41;;;27.14;100.00
7105;BME280;3594;42.152;24.714;2022-08-24T08:06:41;-24576.91;;;27.46;100.00
7105;BME280;3594;42.152;24.714;2022-08-24T08:09:06;-24581.97;;;27.64;100.00
7105;BME280;3594;42.152;24.714;2022-08-24T08:11:32;-24587.59;;;27.85;100.00
7105;BME280;3594;42.152;24.714;2022-08-24T08:13:57;-24593.47;;;28.07;100.00
7105;BME280;3594;42.152;24.714;2022-08-24T08:16:23;-24594.44;;;28.10;100.00
7105;BME280;3594;42.152;24.714;2022-08-24T08:18:48;-24586.34;;;27.81;100.00
7105;BME280;3594;42.152;24.714;2022-08-24T08:21:13;-24589.78;;;27.93;100.00
7105;BME280;3594;42.152;24.714;2022-08-24T08:23:57;-24597.72;;;28.23;100.00
7105;BME280;3594;42.152;24.714;2022-08-24T08:26:52;-24596.63;;;28.19;100.00
7105;BME280;3594;42.152;24.714;2022-08-24T08:29:18;-24587.72;;;27.86;100.00
7105;BME280;3594;42.152;24.714;2022-08-24T08:31:44;-24580.19;;;27.58;100.00
7105;BME280;3594;42.152;24.714;2022-08-24T08:34:11;-24573.22;;;27.32;100.00
7105;BME280;3594;42.152;24.714;2022-08-24T08:36:38;-24571.00;;;27.24;100.00
7105;BME280;3594;42.152;24.714;2022-08-24T08:39:05;-24575.66;;;27.41;100.00
7105;BME280;3594;42.152;24.714;2022-08-24T08:50:06;-24582.38;;;27.66;100.00
7105;BME280;3594;42.152;24.714;2022-08-24T08:55:28;-24587.31;;;27.84;100.00
7105;BME280;3594;42.152;24.714;2022-08-24T09:00:23;-24582.94;;;27.68;100.00
7105;BME280;3594;42.152;24.714;2022-08-24T09:14:34;-24621.94;;;29.12;100.00
7105;BME280;3594;42.152;24.714;2022-08-24T09:20:15;-24622.06;;;29.13;100.00
7105;BME280;3594;42.152;24.714;2022-08-24T09:22:45;-24629.16;;;29.39;100.00
7105;BME280;3594;42.152;24.714;2022-08-24T09:25:19;-24642.97;;;29.90;100.00
7105;BME280;3594;42.152;24.714;2022-08-24T09:58:17;-24620.69;;;29.08;91.99
7105;BME280;3594;42.152;24.714;2022-08-24T10:01:06;-24613.59;;;28.81;94.97
7105;BME280;3594;42.152;24.714;2022-08-24T10:07:27;-24637.34;;;29.69;90.48
7105;BME280;3594;42.152;24.714;2022-08-24T10:09:33;-24634.34;;;29.58;86.19
7105;BME280;3594;42.152;24.714;2022-08-24T10:33:31;-24628.63;;;29.37;86.32
7105;BME280;3594;42.152;24.714;2022-08-24T10:38:33;-24634.75;;;29.60;86.99
7105;BME280;3594;42.152;24.714;2022-08-24T10:44:42;-24666.41;;;30.77;85.29
7105;BME280;3594;42.152;24.714;2022-08-24T10:47:22;-24667.88;;;30.83;82.87
7105;BME280;3594;42.152;24.714;2022-08-24T10:52:47;-24672.38;;;30.99;81.34
7105;BME280;3594;42.152;24.714;2022-08-24T10:55:23;-24668.72;;;30.86;85.87
7105;BME280;3594;42.152;24.714;2022-08-24T11:00:18;-24665.72;;;30.75;78.63
7105;BME280;3594;42.152;24.714;2022-08-24T11:02:47;-24674.56;;;31.07;77.64
7105;BME280;3594;42.152;24.714;2022-08-24T11:05:16;-24673.34;;;31.03;77.70
7105;BME280;3594;42.152;24.714;2022-08-24T11:07:58;-24677.00;;;31.17;81.87
7105;BME280;3594;42.152;24.714;2022-08-24T11:10:27;-24671.44;;;30.96;80.06
7105;BME280;3594;42.152;24.714;2022-08-24T11:12:54;-24672.78;;;31.01;80.44
7105;BME280;3594;42.152;24.714;2022-08-24T11:15:25;-24677.28;;;31.18;80.18
7105;BME280;3594;42.152;24.714;2022-08-24T11:20:32;-24668.44;;;30.85;80.36
7105;BME280;3594;42.152;24.714;2022-08-24T11:23:14;-24677.97;;;31.20;80.47
7105;BME280;3594;42.152;24.714;2022-08-24T11:26:08;-24677.41;;;31.18;80.25
7105;BME280;3594;42.152;24.714;2022-08-24T11:29:00;-24680.13;;;31.28;81.47
7105;BME280;3594;42.152;24.714;2022-08-24T11:31:39;-24681.50;;;31.33;81.17
7105;BME280;3594;42.152;24.714;2022-08-24T11:34:08;-24669.78;;;30.90;84.27
7105;BME280;3594;42.152;24.714;2022-08-24T11:36:36;-24667.34;;;30.81;79.61
7105;BME280;3594;42.152;24.714;2022-08-24T11:44:38;-24686.66;;;31.52;78.25
7105;BME280;3594;42.152;24.714;2022-08-24T11:47:28;-24693.19;;;31.77;78.33
7105;BME280;3594;42.152;24.714;2022-08-24T11:50:25;-24692.66;;;31.75;79.39
7105;BME280;3594;42.152;24.714;2022-08-24T11:53:10;-24692.94;;;31.76;79.29
7105;BME280;3594;42.152;24.714;2022-08-24T11:55:43;-24689.53;;;31.63;80.45
7105;BME280;3594;42.152;24.714;2022-08-24T12:01:14;-24694.28;;;31.81;78.83
7105;BME280;3594;42.152;24.714;2022-08-24T12:03:49;-24694.81;;;31.83;78.30
7105;BME280;3594;42.152;24.714;2022-08-24T12:12:05;-24691.44;;;31.70;78.49
7105;BME280;3594;42.152;24.714;2022-08-24T12:14:51;-24683.53;;;31.41;77.50
7105;BME280;3594;42.152;24.714;2022-08-24T12:20:25;-24677.41;;;31.18;80.47
7105;BME280;3594;42.152;24.714;2022-08-24T12:22:57;-24670.63;;;30.93;79.96
7105;BME280;3594;42.152;24.714;2022-08-24T12:25:26;-24662.44;;;30.62;84.01
7105;BME280;3594;42.152;24.714;2022-08-24T12:28:17;-24663.94;;;30.68;80.95
7105;BME280;3594;42.152;24.714;2022-08-24T12:30:45;-24671.97;;;30.98;80.80
7105;BME280;3594;42.152;24.714;2022-08-24T12:33:12;-24677.97;;;31.20;80.34
7105;BME280;3594;42.152;24.714;2022-08-24T12:35:51;-24673.22;;;31.02;79.66
7105;BME280;3594;42.152;24.714;2022-08-24T12:38:21;-24665.31;;;30.73;77.82
7105;BME280;3594;42.152;24.714;2022-08-24T12:40:52;-24675.78;;;31.12;82.05
7105;BME280;3594;42.152;24.714;2022-08-24T12:43:26;-24683.69;;;31.41;80.12
7105;BME280;3594;42.152;24.714;2022-08-24T12:45:55;-24672.53;;;31.00;81.23
7105;BME280;3594;42.152;24.714;2022-08-24T12:48:37;-24668.56;;;30.85;81.01
7105;BME280;3594;42.152;24.714;2022-08-24T12:51:26;-24661.91;;;30.60;80.94
7105;BME280;3594;42.152;24.714;2022-08-24T12:54:09;-24665.72;;;30.75;82.76
7105;BME280;3594;42.152;24.714;2022-08-24T12:59:49;-24660.25;;;30.54;83.84
7105;BME280;3594;42.152;24.714;2022-08-24T13:23:14;-24674.44;;;31.07;85.13
7105;BME280;3594;42.152;24.714;2022-08-24T13:25:42;-24672.53;;;31.00;82.58
7105;BME280;3594;42.152;24.714;2022-08-24T13:33:40;-24667.63;;;30.82;83.05
7105;BME280;3594;42.152;24.714;2022-08-24T13:39:03;-24660.53;;;30.55;86.02
7105;BME280;3594;42.152;24.714;2022-08-24T13:55:47;-24653.31;;;30.28;85.24
7105;BME280;3594;42.152;24.714;2022-08-24T13:58:24;-24654.00;;;30.31;87.28
7105;BME280;3594;42.152;24.714;2022-08-24T14:01:21;-24664.91;;;30.71;85.07
7105;BME280;3594;42.152;24.714;2022-08-24T14:15:18;-24695.22;;;31.84;80.84
7105;BME280;3594;42.152;24.714;2022-08-24T14:18:42;-24702.72;;;32.12;79.49
7105;BME280;3594;42.152;24.714;2022-08-24T14:20:57;-24704.19;;;32.18;77.40
7105;BME280;3594;42.152;24.714;2022-08-24T14:40:05;-24673.88;;;31.05;82.90
7105;BME280;3594;42.152;24.714;2022-08-24T14:45:09;-24675.78;;;31.12;79.97
7105;BME280;3594;42.152;24.714;2022-08-24T14:48:20;-24677.41;;;31.18;87.07
7105;BME280;3594;42.152;24.714;2022-08-24T15:04:44;-24643.91;;;29.94;91.51
7105;BME280;3594;42.152;24.714;2022-08-24T15:07:28;-24636.25;;;29.65;91.37
7105;BME280;3594;42.152;24.714;2022-08-24T15:09:55;-24628.34;;;29.36;94.74
7105;BME280;3594;42.152;24.714;2022-08-24T15:12:44;-24625.75;;;29.26;96.21
7105;BME280;3594;42.152;24.714;2022-08-24T15:20:58;-24623.16;;;29.17;98.57
7105;BME280;3594;42.152;24.714;2022-08-24T15:25:57;-24624.13;;;29.20;97.66
7105;BME280;3594;42.152;24.714;2022-08-24T15:28:28;-24623.56;;;29.18;97.54
7105;BME280;3594;42.152;24.714;2022-08-24T15:30:58;-24626.44;;;29.29;97.23
7105;BME280;3594;42.152;24.714;2022-08-24T15:33:25;-24614.69;;;28.85;98.07
7105;BME280;3594;42.152;24.714;2022-08-24T15:36:13;-24620.69;;;29.08;97.15
7105;BME280;3594;42.152;24.714;2022-08-24T15:38:40;-24618.09;;;28.98;97.33
7105;BME280;3594;42.152;24.714;2022-08-24T15:41:16;-24621.25;;;29.10;96.74
7105;BME280;3594;42.152;24.714;2022-08-24T15:43:45;-24613.88;;;28.82;96.79
7105;BME280;3594;42.152;24.714;2022-08-24T15:46:13;-24617.16;;;28.94;97.54
7105;BME280;3594;42.152;24.714;2022-08-24T15:48:43;-24606.75;;;28.56;99.68
7105;BME280;3594;42.152;24.714;2022-08-24T15:51:32;-24613.59;;;28.81;98.41
7105;BME280;3594;42.152;24.714;2022-08-24T15:57:01;-24611.13;;;28.72;98.29
7105;BME280;3594;42.152;24.714;2022-08-24T16:04:57;-24601.56;;;28.37;97.71
7105;BME280;3594;42.152;24.714;2022-08-24T16:07:30;-24602.94;;;28.42;100.00
7105;BME280;3594;42.152;24.714;2022-08-24T16:10:10;-24601.28;;;28.36;99.73
7105;BME280;3594;42.152;24.714;2022-08-24T16:12:36;-24592.53;;;28.03;100.00
7105;BME280;3594;42.152;24.714;2022-08-24T16:15:28;-24596.78;;;28.19;100.00
7105;BME280;3594;42.152;24.714;2022-08-24T16:17:55;-24584.16;;;27.73;100.00
7105;BME280;3594;42.152;24.714;2022-08-24T16:22:52;-24586.78;;;27.82;100.00
7105;BME280;3594;42.152;24.714;2022-08-24T16:25:40;-24584.16;;;27.73;100.00
7105;BME280;3594;42.152;24.714;2022-08-24T16:28:50;-24590.75;;;27.97;100.00
7105;BME280;3594;42.152;24.714;2022-08-24T16:30:58;-24582.53;;;27.66;100.00
7105;BME280;3594;42.152;24.714;2022-08-24T16:35:58;-24576.06;;;27.43;100.00
7105;BME280;3594;42.152;24.714;2022-08-24T16:38:26;-24576.06;;;27.43;100.00
7105;BME280;3594;42.152;24.714;2022-08-24T16:40:52;-24581.00;;;27.61;100.00
7105;BME280;3594;42.152;24.714;2022-08-24T16:43:17;-24577.31;;;27.47;100.00
7105;BME280;3594;42.152;24.714;2022-08-24T16:45:43;-24581.56;;;27.63;100.00
7105;BME280;3594;42.152;24.714;2022-08-24T16:48:08;-24574.16;;;27.36;100.00
7105;BME280;3594;42.152;24.714;2022-08-24T16:50:34;-24581.44;;;27.62;100.00
7105;BME280;3594;42.152;24.714;2022-08-24T16:52:59;-24577.19;;;27.47;100.00
7105;BME280;3594;42.152;24.714;2022-08-24T16:55:25;-24568.53;;;27.15;100.00